Gosport, Alabama
Current Conditions -  °F | °C
As of 3:53 AM on Friday 24 Oct 2014 (Local Time) from KGZH Reporting Station
Clear Clear  
Wind Chill: 51°   Ceiling: Unl
Heat Index: 51°   Visibility: 10mi
Dew Point: 47°   Wind: 3mph
Humidity: 86%   Direction: 330°NNW
Pressure: 30.06"   Gusts: NA
Location:  31.6457°N, 87.6115°W
Report Text: KGZH 240853Z AUTO 33003KT 10SM CLR 11/08 A3006 RMK AO2 SLP175 T01060083 56003
Loading
Personal Weather Stations






























Interactive Weather Map
Tropical Storm Tracking
New forecast layout! Learn more

10-Day Weather Forecast

Advertisements
Track Severe Weather on mobile